createdAt,value
2022-10-22T00:03:25.661Z,78.06
2022-10-22T00:08:28.048Z,78.04
2022-10-22T00:13:29.625Z,78.78
2022-10-22T00:18:31.037Z,78.97
2022-10-22T00:23:32.468Z,79.20
2022-10-22T00:28:33.861Z,79.17
2022-10-22T00:33:35.236Z,79.09
2022-10-22T00:38:36.687Z,78.79
2022-10-22T00:44:04.425Z,79.24
2022-10-22T00:49:05.883Z,79.73
2022-10-22T00:54:08.734Z,79.90
2022-10-22T00:59:13.498Z,79.98
2022-10-22T01:04:14.964Z,79.93
2022-10-22T01:09:19.014Z,80.40
2022-10-22T01:14:41.263Z,80.46
2022-10-22T01:20:15.952Z,80.29
2022-10-22T01:25:31.046Z,80.45
2022-10-22T01:30:34.006Z,80.14
2022-10-22T01:35:42.539Z,80.14
2022-10-22T01:40:45.404Z,80.10
2022-10-22T01:45:50.032Z,79.80
2022-10-22T01:51:13.310Z,79.95
2022-10-22T01:56:36.173Z,80.58
2022-10-22T02:01:50.193Z,81.01
2022-10-22T02:06:55.386Z,81.25
2022-10-22T02:11:59.577Z,81.45
2022-10-22T02:17:01.540Z,81.75
2022-10-22T02:22:03.841Z,81.94
2022-10-22T02:27:16.718Z,81.04
2022-10-22T02:32:21.706Z,81.03
2022-10-22T02:37:25.764Z,81.51
2022-10-22T02:42:28.623Z,81.49
2022-10-22T02:47:30.010Z,80.83
2022-10-22T02:52:31.378Z,81.06
2022-10-22T02:57:32.987Z,81.54
2022-10-22T03:02:34.610Z,80.78
2022-10-22T03:07:35.992Z,80.94
2022-10-22T03:12:37.395Z,81.08
2022-10-22T03:17:39.167Z,80.71
2022-10-22T03:22:42.749Z,80.54
2022-10-22T03:27:45.236Z,80.51
2022-10-22T03:32:46.622Z,80.13
2022-10-22T03:37:48.204Z,79.89
2022-10-22T03:42:49.672Z,80.06
2022-10-22T03:47:51.031Z,80.80
2022-10-22T03:52:53.296Z,80.71
2022-10-22T03:57:54.646Z,80.76
2022-10-22T04:02:56.072Z,80.13
2022-10-22T04:07:57.419Z,80.28
2022-10-22T04:12:58.768Z,80.42
2022-10-22T04:18:00.128Z,80.75
2022-10-22T04:23:01.465Z,80.72
2022-10-22T04:28:02.966Z,80.97
2022-10-22T04:33:04.318Z,80.87
2022-10-22T04:38:05.723Z,80.62
2022-10-22T04:43:07.120Z,80.76
2022-10-22T04:48:08.588Z,80.60
2022-10-22T04:53:09.926Z,80.55
2022-10-22T04:58:11.258Z,80.43
2022-10-22T05:03:12.679Z,80.36
2022-10-22T05:08:14.018Z,80.42
2022-10-22T05:13:15.368Z,80.29
2022-10-22T05:18:19.004Z,80.11
2022-10-22T05:23:23.286Z,80.20
2022-10-22T05:28:24.721Z,80.41
2022-10-22T05:33:27.322Z,80.56
2022-10-22T05:38:28.954Z,80.36
2022-10-22T05:43:30.858Z,80.65
2022-10-22T05:53:41.488Z,80.63
2022-10-22T05:58:44.395Z,80.54
2022-10-22T06:03:46.981Z,80.61
2022-10-22T06:08:50.616Z,80.11
2022-10-22T06:13:52.335Z,79.88
2022-10-22T06:18:53.696Z,80.01
2022-10-22T06:23:59.395Z,79.92
2022-10-22T06:29:00.807Z,80.17
2022-10-22T06:34:13.228Z,80.39
2022-10-22T06:39:16.925Z,80.14
2022-10-22T06:44:20.141Z,80.31
2022-10-22T06:49:21.752Z,80.17
2022-10-22T06:54:23.524Z,80.44
2022-10-22T06:59:24.959Z,80.51
2022-10-22T07:04:26.359Z,80.62
2022-10-22T07:09:27.758Z,80.57
2022-10-22T07:14:29.131Z,80.96
2022-10-22T07:19:31.417Z,81.03
2022-10-22T07:24:32.781Z,80.72
2022-10-22T07:29:34.735Z,80.45
2022-10-22T07:34:37.597Z,79.99
2022-10-22T07:39:40.862Z,80.29
2022-10-22T07:44:42.246Z,79.99
2022-10-22T07:49:43.612Z,79.82
2022-10-22T07:54:44.975Z,79.58
2022-10-22T07:59:46.340Z,79.30
2022-10-22T08:04:47.677Z,79.17
2022-10-22T08:09:49.307Z,79.17
2022-10-22T08:14:50.829Z,78.67
2022-10-22T08:19:52.189Z,78.85
2022-10-22T08:24:53.572Z,78.50
2022-10-22T08:29:55.000Z,78.54
2022-10-22T08:34:56.559Z,78.01
2022-10-22T08:39:57.926Z,78.11
2022-10-22T08:45:25.329Z,77.75
2022-10-22T08:50:51.589Z,77.54
2022-10-22T08:55:54.372Z,77.11
2022-10-22T09:00:59.975Z,76.63
2022-10-22T09:06:23.978Z,76.54
2022-10-22T09:11:35.582Z,76.19
2022-10-22T09:16:55.556Z,76.51
2022-10-22T09:22:16.731Z,75.91
2022-10-22T09:27:21.446Z,75.52
2022-10-22T09:32:23.142Z,75.15
2022-10-22T09:37:29.866Z,74.48
2022-10-22T09:42:33.239Z,74.36
2022-10-22T09:48:01.043Z,73.41
2022-10-22T09:53:21.785Z,73.22
2022-10-22T09:58:23.310Z,73.16
2022-10-22T10:03:28.263Z,72.39
2022-10-22T10:08:29.996Z,71.80
2022-10-22T10:13:46.347Z,71.03
2022-10-22T10:19:11.982Z,71.03
2022-10-22T10:24:47.228Z,70.34
2022-10-22T10:29:56.688Z,70.07
2022-10-22T10:35:06.785Z,69.85
2022-10-22T10:40:43.755Z,69.58
2022-10-22T10:46:03.746Z,68.97
2022-10-22T10:51:35.470Z,68.78
2022-10-22T10:56:56.563Z,68.08
2022-10-22T11:02:35.331Z,67.97
2022-10-22T11:07:41.667Z,67.59
2022-10-22T11:12:48.786Z,67.79
2022-10-22T11:17:52.966Z,67.14
2022-10-22T11:23:19.376Z,66.26
2022-10-22T11:28:44.606Z,68.95
2022-10-22T11:34:04.689Z,66.84
2022-10-22T11:39:51.101Z,66.44
2022-10-22T11:45:06.386Z,65.22
2022-10-22T11:50:26.138Z,64.57
2022-10-22T11:55:45.955Z,63.92
2022-10-22T12:00:48.527Z,63.77
2022-10-22T12:06:05.348Z,63.22
2022-10-22T12:11:36.316Z,62.75
2022-10-22T12:22:06.758Z,60.98
2022-10-22T12:27:23.245Z,60.40
2022-10-22T12:32:34.801Z,60.37
2022-10-22T12:37:37.181Z,60.13
2022-10-22T12:42:38.573Z,59.81
2022-10-22T12:47:40.364Z,59.80
2022-10-22T12:52:42.346Z,59.14
2022-10-22T12:57:47.206Z,58.69
2022-10-22T13:02:49.076Z,58.86
2022-10-22T13:08:01.482Z,58.39
2022-10-22T13:13:04.064Z,58.19
2022-10-22T13:18:18.831Z,57.93
2022-10-22T13:23:22.799Z,57.79
2022-10-22T13:28:24.994Z,57.83
2022-10-22T13:33:42.378Z,57.70
2022-10-22T13:38:44.669Z,57.04
2022-10-22T13:43:46.174Z,56.75
2022-10-22T13:48:49.739Z,56.47
2022-10-22T13:53:52.926Z,56.18
2022-10-22T13:58:54.946Z,56.27
2022-10-22T14:04:03.943Z,56.19
2022-10-22T14:09:08.844Z,56.15
2022-10-22T14:14:14.290Z,56.28
2022-10-22T14:19:17.790Z,56.41
2022-10-22T14:24:19.242Z,56.67
2022-10-22T14:29:20.639Z,56.78
2022-10-22T14:34:21.971Z,56.83
2022-10-22T14:39:23.377Z,55.96
2022-10-22T14:44:25.420Z,55.51
2022-10-22T14:49:26.834Z,55.75
2022-10-22T14:54:28.199Z,54.83
2022-10-22T14:59:29.659Z,54.93
2022-10-22T15:04:31.065Z,55.89
2022-10-22T15:09:32.472Z,55.63
2022-10-22T15:14:33.884Z,55.79
2022-10-22T15:19:35.330Z,55.69
2022-10-22T15:24:37.110Z,55.52
2022-10-22T15:29:38.485Z,55.52
2022-10-22T15:34:40.583Z,55.73
2022-10-22T15:39:42.626Z,55.65
2022-10-22T15:44:44.476Z,56.23
2022-10-22T15:49:45.855Z,56.63
2022-10-22T15:54:47.534Z,57.21
2022-10-22T15:59:50.058Z,56.95
2022-10-22T16:04:51.412Z,57.77
2022-10-22T16:09:57.263Z,57.90
2022-10-22T16:14:58.632Z,58.12
2022-10-22T16:19:59.996Z,58.83
2022-10-22T16:25:01.424Z,59.20
2022-10-22T16:30:02.998Z,59.63
2022-10-22T16:35:04.710Z,60.04
2022-10-22T16:40:08.494Z,60.47
2022-10-22T16:45:10.704Z,60.85
2022-10-22T16:50:12.599Z,61.54
2022-10-22T16:55:14.006Z,62.42
2022-10-22T17:00:15.744Z,62.77
2022-10-22T17:05:17.102Z,63.27
2022-10-22T17:15:28.290Z,64.13
2022-10-22T17:20:29.823Z,64.96
2022-10-22T17:25:44.500Z,65.48
2022-10-22T17:30:45.878Z,65.75
2022-10-22T17:35:49.250Z,66.13
2022-10-22T17:40:50.662Z,66.33
2022-10-22T17:45:52.055Z,66.62
2022-10-22T17:50:55.757Z,67.03
2022-10-22T17:56:06.922Z,67.00
2022-10-22T18:01:36.328Z,67.49
2022-10-22T18:06:38.159Z,68.31
2022-10-22T18:11:40.283Z,68.47
2022-10-22T18:16:42.008Z,68.45
2022-10-22T18:21:43.401Z,69.18
2022-10-22T18:26:45.031Z,69.23
2022-10-22T18:31:47.471Z,69.73
2022-10-22T18:36:48.948Z,69.89
2022-10-22T18:41:50.737Z,70.07
2022-10-22T18:46:52.346Z,70.35
2022-10-22T18:51:53.695Z,70.03
2022-10-22T18:56:59.351Z,70.22
2022-10-22T19:02:03.368Z,70.12
2022-10-22T19:07:05.482Z,69.88
2022-10-22T19:12:09.030Z,70.56
2022-10-22T19:17:10.446Z,71.00
2022-10-22T19:22:12.010Z,71.21
2022-10-22T19:27:13.424Z,71.55
2022-10-22T19:32:16.514Z,71.48
2022-10-22T19:37:17.876Z,71.68
2022-10-22T19:42:20.710Z,71.33
2022-10-22T19:47:22.081Z,71.43
2022-10-22T19:52:23.534Z,71.51
2022-10-22T19:57:24.920Z,71.74
2022-10-22T20:02:26.772Z,71.87
2022-10-22T20:07:29.143Z,71.76
2022-10-22T20:12:30.770Z,71.81
2022-10-22T20:17:32.256Z,71.93
2022-10-22T20:22:33.696Z,72.02
2022-10-22T20:27:35.263Z,72.15
2022-10-22T20:32:38.007Z,72.27
2022-10-22T20:37:39.407Z,72.99
2022-10-22T20:42:41.130Z,72.89
2022-10-22T20:47:51.821Z,72.96
2022-10-22T20:53:00.099Z,72.92
2022-10-22T20:58:01.524Z,72.81
2022-10-22T21:03:02.957Z,72.74
2022-10-22T21:08:05.175Z,72.68
2022-10-22T21:13:06.579Z,72.58
2022-10-22T21:18:08.666Z,72.48
2022-10-22T21:23:10.090Z,72.78
2022-10-22T21:28:11.442Z,72.91
2022-10-22T21:33:13.031Z,72.86
2022-10-22T21:38:14.376Z,72.76
2022-10-22T21:43:17.354Z,72.64
2022-10-22T21:48:18.744Z,73.02
2022-10-22T21:53:20.104Z,72.88
2022-10-22T21:58:21.483Z,72.84
2022-10-22T22:03:23.807Z,73.49
2022-10-22T22:08:25.992Z,73.24
2022-10-22T22:13:27.376Z,73.10
2022-10-22T22:18:29.773Z,73.18
2022-10-22T22:23:31.599Z,73.20
2022-10-22T22:28:34.784Z,73.46
2022-10-22T22:33:36.181Z,73.31
2022-10-22T22:38:38.513Z,73.32
2022-10-22T22:43:39.866Z,73.50
2022-10-22T22:48:41.234Z,73.83
2022-10-22T22:53:42.603Z,73.63
2022-10-22T22:58:44.432Z,73.68
2022-10-22T23:03:56.886Z,73.46
2022-10-22T23:08:58.689Z,73.71
2022-10-22T23:14:02.056Z,73.92
2022-10-22T23:19:05.246Z,74.00
2022-10-22T23:24:10.972Z,73.94
2022-10-22T23:29:21.458Z,73.98
2022-10-22T23:34:24.971Z,74.31
2022-10-22T23:39:28.321Z,74.17
2022-10-22T23:44:29.886Z,74.10
2022-10-22T23:49:31.512Z,73.93
2022-10-22T23:54:32.869Z,74.20
2022-10-22T23:59:34.371Z,74.11
